createdAt,value
2023-05-09T00:00:08.150Z,1004.60
2023-05-09T00:01:08.905Z,1004.55
2023-05-09T00:02:09.124Z,1004.58
2023-05-09T00:03:09.248Z,1004.57
2023-05-09T00:04:09.877Z,1004.55
2023-05-09T00:05:14.022Z,1004.60
2023-05-09T00:06:09.792Z,1004.57
2023-05-09T00:07:10.900Z,1004.57
2023-05-09T00:08:10.577Z,1004.54
2023-05-09T00:09:09.800Z,1004.51
2023-05-09T00:10:10.411Z,1004.54
2023-05-09T00:11:10.537Z,1004.53
2023-05-09T00:12:10.653Z,1004.53
2023-05-09T00:13:10.800Z,1004.57
2023-05-09T00:14:10.961Z,1004.57
2023-05-09T00:15:10.864Z,1004.56
2023-05-09T00:16:11.618Z,1004.55
2023-05-09T00:17:12.358Z,1004.54
2023-05-09T00:18:11.958Z,1004.48
2023-05-09T00:19:12.377Z,1004.50
2023-05-09T00:21:26.450Z,1004.46
2023-05-09T00:22:29.037Z,1004.47
2023-05-09T00:23:27.612Z,1004.43
2023-05-09T00:24:28.767Z,1004.46
2023-05-09T00:25:28.934Z,1004.43
2023-05-09T00:26:27.071Z,1004.48
2023-05-09T00:27:27.282Z,1004.49
2023-05-09T00:28:27.951Z,1004.50
2023-05-09T00:29:27.874Z,1004.50
2023-05-09T00:30:28.018Z,1004.46
2023-05-09T00:31:28.702Z,1004.46
2023-05-09T00:32:30.355Z,1004.47
2023-05-09T00:33:29.542Z,1004.49
2023-05-09T00:34:31.993Z,1004.45
2023-05-09T00:35:32.172Z,1004.48
2023-05-09T00:36:32.280Z,1004.44
2023-05-09T00:37:31.144Z,1004.51
2023-05-09T00:38:31.778Z,1004.46
2023-05-09T00:39:29.956Z,1004.49
2023-05-09T00:40:31.043Z,1004.43
2023-05-09T00:41:30.258Z,1004.46
2023-05-09T00:42:32.454Z,1004.48
2023-05-09T00:43:31.594Z,1004.41
2023-05-09T00:44:30.813Z,1004.44
2023-05-09T00:45:33.642Z,1004.42
2023-05-09T00:46:31.300Z,1004.49
2023-05-09T00:47:32.332Z,1004.44
2023-05-09T00:48:31.531Z,1004.39
2023-05-09T00:49:31.804Z,1004.40
2023-05-09T00:50:31.988Z,1004.42
2023-05-09T00:51:34.271Z,1004.40
2023-05-09T00:52:34.376Z,1004.33
2023-05-09T00:53:32.511Z,1004.33
2023-05-09T00:54:34.714Z,1004.32
2023-05-09T00:55:34.310Z,1004.32
2023-05-09T00:56:35.035Z,1004.31
2023-05-09T00:57:33.228Z,1004.27
2023-05-09T00:58:33.428Z,1004.35
2023-05-09T00:59:34.672Z,1004.34
2023-05-09T01:00:34.800Z,1004.31
2023-05-09T01:01:33.981Z,1004.28
2023-05-09T01:02:34.360Z,1004.31
2023-05-09T01:03:37.582Z,1004.27
2023-05-09T01:04:36.842Z,1004.29
2023-05-09T01:05:39.787Z,1004.29
2023-05-09T01:06:35.054Z,1004.17
2023-05-09T01:07:36.626Z,1004.19
2023-05-09T01:08:37.227Z,1004.20
2023-05-09T01:09:38.425Z,1004.22
2023-05-09T01:10:36.522Z,1004.21
2023-05-09T01:11:35.699Z,1004.22
2023-05-09T01:12:36.969Z,1004.16
2023-05-09T01:13:38.115Z,1004.19
2023-05-09T01:14:38.233Z,1004.14
2023-05-09T01:15:39.064Z,1004.16
2023-05-09T01:16:38.220Z,1004.15
2023-05-09T01:17:36.917Z,1004.16
2023-05-09T01:18:37.179Z,1004.14
2023-05-09T01:19:37.301Z,1004.19
2023-05-09T01:20:37.512Z,1004.09
2023-05-09T01:21:37.649Z,1004.12
2023-05-09T01:22:37.844Z,1004.06
2023-05-09T01:23:40.254Z,1004.12
2023-05-09T01:24:39.853Z,1004.10
2023-05-09T01:25:40.492Z,1004.11
2023-05-09T01:26:39.754Z,1004.07
2023-05-09T01:27:39.894Z,1004.11
2023-05-09T01:28:40.948Z,1004.11
2023-05-09T01:29:41.092Z,1004.06
2023-05-09T01:30:41.226Z,1004.01
2023-05-09T01:31:42.171Z,1004.08
2023-05-09T01:32:40.497Z,1004.04
2023-05-09T01:33:41.629Z,1004.01
2023-05-09T01:34:42.419Z,1004.02
2023-05-09T01:35:45.656Z,1004.02
2023-05-09T01:36:41.279Z,1004.03
2023-05-09T01:37:41.427Z,1004.02
2023-05-09T01:38:43.524Z,1004.04
2023-05-09T01:39:40.747Z,1004.03
2023-05-09T01:40:42.873Z,1004.04
2023-05-09T01:41:41.629Z,1004.05
2023-05-09T01:42:41.296Z,1004.03
2023-05-09T01:43:43.477Z,1004.02
2023-05-09T01:44:41.609Z,1003.99
2023-05-09T01:45:42.173Z,1003.93
2023-05-09T01:46:41.888Z,1003.99
2023-05-09T01:47:44.088Z,1003.94
2023-05-09T01:48:43.192Z,1003.89
2023-05-09T01:49:44.509Z,1003.93
2023-05-09T01:50:42.663Z,1003.93
2023-05-09T01:51:44.031Z,1003.92
2023-05-09T01:52:43.372Z,1003.90
2023-05-09T01:53:44.541Z,1003.90
2023-05-09T01:54:43.717Z,1003.91
2023-05-09T01:55:45.838Z,1003.94
2023-05-09T01:56:44.133Z,1003.91
2023-05-09T01:57:44.351Z,1003.90
2023-05-09T01:58:45.514Z,1003.89
2023-05-09T01:59:44.780Z,1003.90
2023-05-09T02:00:45.900Z,1003.91
2023-05-09T02:01:48.699Z,1003.87
2023-05-09T02:02:47.545Z,1003.86
2023-05-09T02:03:48.648Z,1003.84
2023-05-09T02:04:46.251Z,1003.86
2023-05-09T02:05:50.548Z,1003.87
2023-05-09T02:06:48.668Z,1003.92
2023-05-09T02:07:48.037Z,1003.95
2023-05-09T02:08:47.206Z,1003.93
2023-05-09T02:09:47.421Z,1003.91
2023-05-09T02:10:48.138Z,1003.93
2023-05-09T02:11:47.989Z,1004.00
2023-05-09T02:12:48.191Z,1004.01
2023-05-09T02:13:48.930Z,1003.97
2023-05-09T02:14:50.611Z,1003.98
2023-05-09T02:15:50.786Z,1003.99
2023-05-09T02:16:51.536Z,1003.93
2023-05-09T02:17:50.246Z,1003.90
2023-05-09T02:18:49.431Z,1003.82
2023-05-09T02:19:49.575Z,1003.94
2023-05-09T02:20:49.817Z,1003.85
2023-05-09T02:21:49.979Z,1003.86
2023-05-09T02:22:52.673Z,1003.85
2023-05-09T02:23:50.347Z,1003.82
2023-05-09T02:24:52.457Z,1003.81
2023-05-09T02:25:52.613Z,1003.81
2023-05-09T02:26:50.753Z,1003.80
2023-05-09T02:27:50.923Z,1003.78
2023-05-09T02:28:52.843Z,1003.79
2023-05-09T02:29:53.470Z,1003.82
2023-05-09T02:30:51.765Z,1003.83
2023-05-09T02:31:53.983Z,1003.81
2023-05-09T02:32:54.280Z,1003.79
2023-05-09T02:33:54.453Z,1003.83
2023-05-09T02:34:52.669Z,1003.79
2023-05-09T02:35:54.834Z,1003.86
2023-05-09T02:36:54.984Z,1003.80
2023-05-09T02:38:00.935Z,1003.78
2023-05-09T02:38:53.657Z,1003.80
2023-05-09T02:39:53.877Z,1003.77
2023-05-09T02:40:54.983Z,1003.80
2023-05-09T02:41:54.153Z,1003.79
2023-05-09T02:42:55.272Z,1003.76
2023-05-09T02:43:54.451Z,1003.74
2023-05-09T02:44:56.639Z,1003.72
2023-05-09T02:45:56.953Z,1003.70
2023-05-09T02:46:56.936Z,1003.71
2023-05-09T02:47:55.649Z,1003.69
2023-05-09T02:48:56.096Z,1003.72
2023-05-09T02:49:57.325Z,1003.70
2023-05-09T02:50:58.066Z,1003.69
2023-05-09T02:51:57.131Z,1003.69
2023-05-09T02:52:56.808Z,1003.67
2023-05-09T02:53:58.453Z,1003.70
2023-05-09T02:54:57.134Z,1003.72
2023-05-09T02:55:59.404Z,1003.69
2023-05-09T02:56:57.554Z,1003.67
2023-05-09T02:58:12.776Z,1003.71
2023-05-09T02:58:58.135Z,1003.67
2023-05-09T02:59:58.328Z,1003.64
2023-05-09T03:01:00.474Z,1003.70
2023-05-09T03:02:00.167Z,1003.65
2023-05-09T03:02:59.824Z,1003.66
2023-05-09T03:03:59.106Z,1003.69
2023-05-09T03:05:03.123Z,1003.62
2023-05-09T03:05:59.828Z,1003.72
2023-05-09T03:07:02.056Z,1003.71
2023-05-09T03:08:02.497Z,1003.70
2023-05-09T03:09:00.657Z,1003.62
2023-05-09T03:10:03.873Z,1003.62
2023-05-09T03:11:01.012Z,1003.60
2023-05-09T03:12:03.226Z,1003.59
2023-05-09T03:13:02.911Z,1003.63
2023-05-09T03:14:02.712Z,1003.51
2023-05-09T03:15:03.834Z,1003.61
2023-05-09T03:16:02.045Z,1003.61
2023-05-09T03:17:04.115Z,1003.56
2023-05-09T03:18:03.364Z,1003.55
2023-05-09T03:19:03.629Z,1003.58
2023-05-09T03:20:04.237Z,1003.58
2023-05-09T03:21:03.233Z,1003.57
2023-05-09T03:22:05.420Z,1003.50
2023-05-09T03:23:03.579Z,1003.54
2023-05-09T03:24:05.168Z,1003.55
2023-05-09T03:25:03.913Z,1003.52
2023-05-09T03:26:04.081Z,1003.54
2023-05-09T03:27:04.269Z,1003.51
2023-05-09T03:28:06.448Z,1003.49
2023-05-09T03:29:04.625Z,1003.46
2023-05-09T03:30:04.826Z,1003.48
2023-05-09T03:31:06.987Z,1003.51
2023-05-09T03:32:07.182Z,1003.48
2023-05-09T03:33:05.368Z,1003.48
2023-05-09T03:34:05.541Z,1003.40
2023-05-09T03:35:06.683Z,1003.40
2023-05-09T03:36:07.877Z,1003.43
2023-05-09T03:37:08.049Z,1003.37
2023-05-09T03:38:08.695Z,1003.39
2023-05-09T03:39:06.335Z,1003.41
2023-05-09T03:40:06.581Z,1003.38
2023-05-09T03:41:06.741Z,1003.40
2023-05-09T03:42:08.908Z,1003.39
2023-05-09T03:43:07.119Z,1003.41
2023-05-09T03:44:07.258Z,1003.37
2023-05-09T03:45:07.438Z,1003.39
2023-05-09T03:46:07.577Z,1003.36
2023-05-09T03:47:09.770Z,1003.33
2023-05-09T03:48:12.647Z,1003.41
2023-05-09T03:49:08.360Z,1003.40
2023-05-09T03:50:10.623Z,1003.43
2023-05-09T03:51:08.799Z,1003.43
2023-05-09T03:52:10.494Z,1003.42
2023-05-09T03:53:09.143Z,1003.40
2023-05-09T03:54:11.301Z,1003.40
2023-05-09T03:55:12.010Z,1003.42
2023-05-09T03:56:10.364Z,1003.36
2023-05-09T03:57:10.033Z,1003.34
2023-05-09T03:58:10.983Z,1003.28
2023-05-09T03:59:10.660Z,1003.32
2023-05-09T04:00:12.769Z,1003.35
2023-05-09T04:01:11.959Z,1003.31
2023-05-09T04:02:11.141Z,1003.33
2023-05-09T04:03:12.483Z,1003.32
2023-05-09T04:04:12.152Z,1003.31
2023-05-09T04:05:13.990Z,1003.31
2023-05-09T04:06:13.297Z,1003.29
2023-05-09T04:07:14.104Z,1003.32
2023-05-09T04:08:12.823Z,1003.30
2023-05-09T04:09:14.039Z,1003.35
2023-05-09T04:10:13.200Z,1003.29
2023-05-09T04:11:14.337Z,1003.29
2023-05-09T04:12:13.483Z,1003.34
2023-05-09T04:13:14.612Z,1003.29
2023-05-09T04:14:13.781Z,1003.29
2023-05-09T04:15:15.565Z,1003.28
2023-05-09T04:16:14.459Z,1003.26
2023-05-09T04:17:15.718Z,1003.28
2023-05-09T04:18:14.893Z,1003.31
2023-05-09T04:19:15.087Z,1003.29
2023-05-09T04:20:15.865Z,1003.22
2023-05-09T04:21:15.524Z,1003.25
2023-05-09T04:22:15.902Z,1003.24
2023-05-09T04:23:16.059Z,1003.25
2023-05-09T04:24:16.230Z,1003.23
2023-05-09T04:25:18.143Z,1003.25
2023-05-09T04:26:17.802Z,1003.24
2023-05-09T04:27:16.948Z,1003.24
2023-05-09T04:28:17.155Z,1003.30
2023-05-09T04:29:18.822Z,1003.26
2023-05-09T04:30:17.496Z,1003.31
2023-05-09T04:31:20.863Z,1003.27
2023-05-09T04:32:20.444Z,1003.32
2023-05-09T04:33:18.167Z,1003.29
2023-05-09T04:34:20.313Z,1003.39
2023-05-09T04:35:23.132Z,1003.32
2023-05-09T04:36:19.028Z,1003.26
2023-05-09T04:37:20.136Z,1003.31
2023-05-09T04:38:19.270Z,1003.22
2023-05-09T04:39:21.398Z,1003.19
2023-05-09T04:40:20.445Z,1003.23
2023-05-09T04:41:19.629Z,1003.20
2023-05-09T04:42:19.835Z,1003.24
2023-05-09T04:43:22.468Z,1003.25
2023-05-09T04:44:21.067Z,1003.16
2023-05-09T04:45:22.193Z,1003.16
2023-05-09T04:46:24.975Z,1003.22
2023-05-09T04:47:22.866Z,1003.15
2023-05-09T04:48:21.281Z,1003.13
2023-05-09T04:49:22.401Z,1003.17
2023-05-09T04:50:22.554Z,1003.20
2023-05-09T04:51:21.734Z,1003.17
2023-05-09T04:52:21.900Z,1003.18
2023-05-09T04:53:24.030Z,1003.17
2023-05-09T04:54:23.978Z,1003.15
2023-05-09T04:55:22.619Z,1003.21
2023-05-09T04:56:22.791Z,1003.24
2023-05-09T04:57:22.957Z,1003.17
2023-05-09T04:58:24.573Z,1003.20
2023-05-09T04:59:25.226Z,1003.24
2023-05-09T05:00:24.855Z,1003.18
2023-05-09T05:01:25.513Z,1003.20
2023-05-09T05:02:25.803Z,1003.18
2023-05-09T05:03:23.966Z,1003.13
2023-05-09T05:04:24.121Z,1003.15
2023-05-09T05:05:37.518Z,1003.11
2023-05-09T05:06:26.573Z,1003.12
2023-05-09T05:07:26.322Z,1003.09
2023-05-09T05:08:24.970Z,1003.06
2023-05-09T05:09:25.109Z,1003.07
2023-05-09T05:10:26.739Z,1003.06
2023-05-09T05:11:26.295Z,1003.09
2023-05-09T05:12:26.910Z,1003.07
2023-05-09T05:13:25.697Z,1003.07
2023-05-09T05:14:26.888Z,1002.98
2023-05-09T05:15:30.039Z,1003.04
2023-05-09T05:16:27.765Z,1003.07
2023-05-09T05:17:27.423Z,1003.04
2023-05-09T05:18:26.662Z,1002.98
2023-05-09T05:19:27.345Z,1003.03
2023-05-09T05:20:28.516Z,1003.05
2023-05-09T05:21:28.144Z,1002.99
2023-05-09T05:22:32.774Z,1003.04
2023-05-09T05:23:28.376Z,1002.97
2023-05-09T05:24:29.017Z,1002.99
2023-05-09T05:25:28.983Z,1002.95
2023-05-09T05:26:29.616Z,1002.92
2023-05-09T05:27:29.780Z,1002.94
2023-05-09T05:28:30.083Z,1002.95
2023-05-09T05:29:30.343Z,1002.90
2023-05-09T05:30:32.763Z,1002.89
2023-05-09T05:31:30.005Z,1002.90
2023-05-09T05:32:31.952Z,1002.91
2023-05-09T05:33:31.242Z,1002.89
2023-05-09T05:34:32.100Z,1002.89
2023-05-09T05:35:36.747Z,1002.85
2023-05-09T05:36:32.439Z,1002.82
2023-05-09T05:37:34.506Z,1002.86
2023-05-09T05:38:32.634Z,1002.88
2023-05-09T05:39:33.165Z,1002.86
2023-05-09T05:40:32.930Z,1002.83
2023-05-09T05:41:33.319Z,1002.84
2023-05-09T05:42:34.010Z,1002.80
2023-05-09T05:43:34.424Z,1002.78
2023-05-09T05:44:35.693Z,1002.83
2023-05-09T05:45:36.140Z,1002.82
2023-05-09T05:46:34.997Z,1002.84
2023-05-09T05:47:36.453Z,1002.79
2023-05-09T05:48:35.789Z,1002.79
2023-05-09T05:49:36.279Z,1002.71
2023-05-09T05:50:38.222Z,1002.78
2023-05-09T05:51:41.485Z,1002.76
2023-05-09T05:52:36.724Z,1002.70
2023-05-09T05:53:40.477Z,1002.71
2023-05-09T05:54:40.527Z,1002.72
2023-05-09T05:55:48.268Z,1002.69
2023-05-09T05:56:38.714Z,1002.70
2023-05-09T05:57:38.562Z,1002.71
2023-05-09T05:58:40.212Z,1002.75
2023-05-09T05:59:39.265Z,1002.69
2023-05-09T06:00:38.685Z,1002.73
2023-05-09T06:01:39.565Z,1002.67
2023-05-09T06:02:41.623Z,1002.68
2023-05-09T06:03:41.515Z,1002.71
2023-05-09T06:04:40.839Z,1002.65
2023-05-09T06:05:47.837Z,1002.63
2023-05-09T06:06:39.949Z,1002.59
2023-05-09T06:07:41.607Z,1002.62
2023-05-09T06:08:40.082Z,1002.66
2023-05-09T06:09:48.468Z,1002.64
2023-05-09T06:10:41.787Z,1002.56
2023-05-09T06:11:40.692Z,1002.63
2023-05-09T06:12:41.819Z,1002.63
2023-05-09T06:13:48.703Z,1002.64
2023-05-09T06:14:44.302Z,1002.62
2023-05-09T06:15:42.850Z,1002.65
2023-05-09T06:16:42.971Z,1002.62
2023-05-09T06:17:41.968Z,1002.56
2023-05-09T06:18:43.242Z,1002.55
2023-05-09T06:19:44.244Z,1002.55
2023-05-09T06:20:43.375Z,1002.56
2023-05-09T06:21:49.500Z,1002.52
2023-05-09T06:22:44.219Z,1002.45
2023-05-09T06:24:04.316Z,1002.45
2023-05-09T06:24:51.292Z,1002.43
2023-05-09T06:25:46.211Z,1002.39
2023-05-09T06:26:44.712Z,1002.39
2023-05-09T06:28:08.274Z,1002.37
2023-05-09T06:28:54.476Z,1002.30
2023-05-09T06:29:46.260Z,1002.31
2023-05-09T06:30:45.474Z,1002.36
2023-05-09T06:32:03.504Z,1002.24
2023-05-09T06:32:45.643Z,1002.33
2023-05-09T06:33:45.125Z,1002.22
2023-05-09T06:34:47.357Z,1002.23
2023-05-09T06:35:49.905Z,1002.20
2023-05-09T06:37:04.012Z,1002.27
2023-05-09T06:37:49.177Z,1002.22
2023-05-09T06:38:47.974Z,1002.22
2023-05-09T06:39:52.040Z,1002.18
2023-05-09T06:40:52.520Z,1002.24
2023-05-09T06:41:49.353Z,1002.23
2023-05-09T06:42:52.101Z,1002.18
2023-05-09T06:43:49.902Z,1002.17
2023-05-09T06:44:49.778Z,1002.19
2023-05-09T06:45:49.964Z,1002.15
2023-05-09T06:46:49.816Z,1002.09
2023-05-09T06:47:50.121Z,1002.13
2023-05-09T06:48:51.070Z,1002.06
2023-05-09T06:49:51.023Z,1002.12
2023-05-09T06:50:51.372Z,1002.05
2023-05-09T06:51:51.783Z,1002.09
2023-05-09T06:52:52.186Z,1002.10
2023-05-09T06:53:51.632Z,1002.04
2023-05-09T06:54:54.048Z,1002.04
2023-05-09T06:55:53.289Z,1002.03
2023-05-09T06:56:53.320Z,1002.00
2023-05-09T06:57:54.720Z,1002.02
2023-05-09T06:58:53.668Z,1002.00
2023-05-09T06:59:53.883Z,1001.92
2023-05-09T07:00:54.278Z,1001.94
2023-05-09T07:01:57.939Z,1001.94
2023-05-09T07:02:55.084Z,1001.86
2023-05-09T07:04:06.148Z,1001.85
2023-05-09T07:07:22.940Z,1001.80
2023-05-09T07:08:24.729Z,1001.81
2023-05-09T07:10:56.930Z,1001.78
2023-05-09T07:11:59.023Z,1001.70
2023-05-09T07:12:58.894Z,1001.70
2023-05-09T07:13:58.951Z,1001.69
2023-05-09T07:14:57.916Z,1001.63
2023-05-09T07:15:58.374Z,1001.61
2023-05-09T07:17:13.828Z,1001.69
2023-05-09T07:18:02.656Z,1001.66
2023-05-09T07:18:59.179Z,1001.59
2023-05-09T07:19:58.910Z,1001.64
2023-05-09T07:21:01.193Z,1001.61
2023-05-09T07:22:00.019Z,1001.57
2023-05-09T07:23:03.703Z,1001.57
2023-05-09T07:23:59.876Z,1001.60
2023-05-09T07:24:59.531Z,1001.55
2023-05-09T07:25:59.824Z,1001.53
2023-05-09T07:27:01.002Z,1001.55
2023-05-09T07:28:00.208Z,1001.53
2023-05-09T07:29:04.547Z,1001.52
2023-05-09T07:30:00.637Z,1001.50
2023-05-09T07:31:04.538Z,1001.52
2023-05-09T07:32:02.421Z,1001.47
2023-05-09T07:33:04.874Z,1001.48
2023-05-09T07:34:06.499Z,1001.49
2023-05-09T07:36:49.157Z,1001.38
2023-05-09T07:37:55.176Z,1001.37
2023-05-09T07:38:46.843Z,1001.39
2023-05-09T07:39:49.170Z,1001.34
2023-05-09T07:40:46.516Z,1001.26
2023-05-09T07:41:48.665Z,1001.25
2023-05-09T07:42:46.008Z,1001.26
2023-05-09T07:43:47.355Z,1001.26
2023-05-09T07:44:46.746Z,1001.26
2023-05-09T07:45:47.613Z,1001.30
2023-05-09T07:46:48.880Z,1001.24
2023-05-09T07:47:49.190Z,1001.27
2023-05-09T07:48:48.871Z,1001.26
2023-05-09T07:49:49.799Z,1001.27
2023-05-09T07:50:48.283Z,1001.29
2023-05-09T07:51:50.193Z,1001.26
2023-05-09T07:52:50.123Z,1001.22
2023-05-09T07:53:49.497Z,1001.17
2023-05-09T07:54:51.576Z,1001.23
2023-05-09T07:55:50.256Z,1001.19
2023-05-09T07:56:51.687Z,1001.15
2023-05-09T07:57:50.781Z,1001.17
2023-05-09T07:58:54.333Z,1001.16
2023-05-09T07:59:51.820Z,1001.18
2023-05-09T08:00:51.718Z,1001.18
2023-05-09T08:01:51.932Z,1001.17
2023-05-09T08:02:52.303Z,1001.15
2023-05-09T08:03:52.224Z,1001.18
2023-05-09T08:04:54.212Z,1001.13
2023-05-09T08:05:56.078Z,1001.09
2023-05-09T08:06:52.497Z,1000.97
2023-05-09T08:07:55.244Z,1000.97
2023-05-09T08:08:56.770Z,1000.95
2023-05-09T08:09:53.318Z,1000.96
2023-05-09T08:10:52.803Z,1000.98
2023-05-09T08:11:54.569Z,1000.97
2023-05-09T08:12:53.925Z,1000.97
2023-05-09T08:13:54.996Z,1000.97
2023-05-09T08:15:00.606Z,1000.94
2023-05-09T08:15:54.312Z,1000.88
2023-05-09T08:16:56.630Z,1000.88
2023-05-09T08:17:56.337Z,1000.95
2023-05-09T08:18:55.523Z,1000.84
2023-05-09T08:19:56.316Z,1000.82
2023-05-09T08:20:57.330Z,1000.80
2023-05-09T08:22:06.518Z,1000.80
2023-05-09T08:25:18.373Z,1000.80
2023-05-09T08:25:39.087Z,1000.82
2023-05-09T08:26:35.863Z,1000.79
2023-05-09T08:27:38.551Z,1000.74
2023-05-09T08:28:50.078Z,1000.76
2023-05-09T08:29:36.704Z,1000.81
2023-05-09T08:30:42.953Z,1000.80
2023-05-09T08:31:37.280Z,1000.77
2023-05-09T08:32:38.476Z,1000.75
2023-05-09T08:33:41.235Z,1000.71
2023-05-09T08:34:38.934Z,1000.69
2023-05-09T08:35:38.755Z,1000.79
2023-05-09T08:36:38.201Z,1000.72
2023-05-09T08:37:37.924Z,1000.70
2023-05-09T08:38:38.282Z,1000.76
2023-05-09T08:39:41.080Z,1000.72
2023-05-09T08:40:40.789Z,1000.71
2023-05-09T08:41:41.263Z,1000.67
2023-05-09T08:42:40.988Z,1000.67
2023-05-09T08:43:40.343Z,1000.64
2023-05-09T08:44:41.151Z,1000.64
2023-05-09T08:45:41.194Z,1000.67
2023-05-09T08:46:40.429Z,1000.62
2023-05-09T08:47:42.598Z,1000.63
2023-05-09T08:48:55.834Z,1000.62
2023-05-09T08:49:40.897Z,1000.61
2023-05-09T08:50:41.617Z,1000.60
2023-05-09T08:51:40.627Z,1000.56
2023-05-09T08:52:41.304Z,1000.51
2023-05-09T08:53:40.920Z,1000.61
2023-05-09T08:54:48.598Z,1000.56
2023-05-09T08:55:44.233Z,1000.51
2023-05-09T08:56:42.095Z,1000.53
2023-05-09T08:57:42.570Z,1000.46
2023-05-09T08:58:43.630Z,1000.47
2023-05-09T08:59:43.731Z,1000.50
2023-05-09T09:00:43.842Z,1000.44
2023-05-09T09:01:44.525Z,1000.44
2023-05-09T09:02:43.304Z,1000.47
2023-05-09T09:03:44.474Z,1000.36
2023-05-09T09:08:20.596Z,1000.35
2023-05-09T09:08:38.894Z,1000.31
2023-05-09T09:09:38.908Z,1000.32
2023-05-09T09:10:57.123Z,1000.33
2023-05-09T09:11:39.227Z,1000.30
2023-05-09T09:12:41.025Z,1000.24
2023-05-09T09:13:39.869Z,1000.30
2023-05-09T09:14:39.262Z,1000.27
2023-05-09T09:15:39.847Z,1000.24
2023-05-09T09:16:40.404Z,1000.22
2023-05-09T09:17:40.503Z,1000.13
2023-05-09T09:18:40.936Z,1000.24
2023-05-09T09:19:40.790Z,1000.29
2023-05-09T09:20:40.504Z,1000.19
2023-05-09T09:21:41.044Z,1000.21
2023-05-09T09:22:42.085Z,1000.14
2023-05-09T09:23:42.068Z,1000.12
2023-05-09T09:24:43.746Z,1000.19
2023-05-09T09:25:41.235Z,1000.13
2023-05-09T09:26:51.319Z,1000.09
2023-05-09T09:28:33.285Z,1000.07
2023-05-09T09:28:52.179Z,1000.05
2023-05-09T09:29:51.559Z,1000.09
2023-05-09T09:30:52.568Z,999.95
2023-05-09T09:31:52.334Z,1000.00
2023-05-09T09:32:51.995Z,999.97
2023-05-09T09:33:53.784Z,999.92
2023-05-09T09:34:54.662Z,999.94
2023-05-09T09:35:54.235Z,999.87
2023-05-09T09:36:53.479Z,999.82
2023-05-09T09:37:53.105Z,999.81
2023-05-09T09:38:54.962Z,999.80
2023-05-09T09:39:54.187Z,999.72
2023-05-09T09:40:55.201Z,999.77
2023-05-09T09:42:03.764Z,999.76
2023-05-09T09:42:55.063Z,999.66
2023-05-09T09:43:57.490Z,999.66
2023-05-09T09:44:55.105Z,999.67
2023-05-09T09:46:01.407Z,999.68
2023-05-09T09:46:55.370Z,999.58
2023-05-09T09:47:56.124Z,999.61
2023-05-09T09:48:55.922Z,999.60
2023-05-09T09:49:56.953Z,999.60
2023-05-09T09:50:56.658Z,999.59
2023-05-09T09:51:57.012Z,999.58
2023-05-09T09:52:57.374Z,999.51
2023-05-09T09:53:57.636Z,999.62
2023-05-09T09:54:59.965Z,999.52
2023-05-09T09:55:57.841Z,999.55
2023-05-09T09:56:59.842Z,999.52
2023-05-09T09:57:59.014Z,999.49
2023-05-09T09:58:57.286Z,999.45
2023-05-09T10:00:00.588Z,999.44
2023-05-09T10:01:14.313Z,999.37
2023-05-09T10:02:03.995Z,999.35
2023-05-09T10:03:05.309Z,999.32
2023-05-09T10:04:00.764Z,999.37
2023-05-09T10:05:16.893Z,999.41
2023-05-09T10:06:33.478Z,999.34
2023-05-09T10:07:00.393Z,999.34
2023-05-09T10:08:01.160Z,999.27
2023-05-09T10:09:01.705Z,999.27
2023-05-09T10:11:01.778Z,999.25
2023-05-09T10:12:08.349Z,999.24
2023-05-09T10:14:42.077Z,999.24
2023-05-09T10:16:43.060Z,999.16
2023-05-09T10:17:02.035Z,999.13
2023-05-09T10:18:02.045Z,999.12
2023-05-09T10:19:31.348Z,999.13
2023-05-09T10:20:03.081Z,999.17
2023-05-09T10:21:03.608Z,999.13
2023-05-09T10:22:02.795Z,999.13
2023-05-09T10:23:03.480Z,999.08
2023-05-09T10:24:04.612Z,999.05
2023-05-09T10:25:03.251Z,999.07
2023-05-09T10:26:07.204Z,999.09
2023-05-09T10:27:02.954Z,999.01
2023-05-09T10:28:03.679Z,999.01
2023-05-09T10:29:04.145Z,999.01
2023-05-09T10:31:05.432Z,999.01
2023-05-09T10:32:40.970Z,998.99
2023-05-09T10:33:05.888Z,998.96
2023-05-09T10:34:12.945Z,998.98
2023-05-09T10:35:04.383Z,998.90
2023-05-09T10:36:06.146Z,998.85
2023-05-09T10:37:05.515Z,998.89
2023-05-09T10:38:06.293Z,998.80
2023-05-09T10:39:05.235Z,998.89
2023-05-09T10:40:16.655Z,998.75
2023-05-09T10:41:07.140Z,998.80
2023-05-09T10:42:07.900Z,998.77
2023-05-09T10:43:07.146Z,998.81
2023-05-09T10:44:53.932Z,998.74
2023-05-09T10:45:12.534Z,998.78
2023-05-09T10:46:11.723Z,998.70
2023-05-09T10:47:14.547Z,998.73
2023-05-09T10:48:11.503Z,998.80
2023-05-09T10:49:14.519Z,998.71
2023-05-09T10:50:12.273Z,998.67
2023-05-09T10:51:26.966Z,998.72
2023-05-09T10:52:11.900Z,998.65
2023-05-09T10:53:14.210Z,998.60
2023-05-09T10:54:13.982Z,998.64
2023-05-09T10:55:25.901Z,998.58
2023-05-09T10:56:17.436Z,998.61
2023-05-09T10:57:17.334Z,998.57
2023-05-09T10:58:19.132Z,998.59
2023-05-09T10:59:14.537Z,998.54
2023-05-09T11:00:14.862Z,998.56
2023-05-09T11:01:15.389Z,998.55
2023-05-09T11:02:16.600Z,998.55
2023-05-09T11:03:16.840Z,998.57
2023-05-09T11:04:19.476Z,998.56
2023-05-09T11:05:19.325Z,998.47
2023-05-09T11:06:19.350Z,998.51
2023-05-09T11:07:16.182Z,998.41
2023-05-09T11:08:16.990Z,998.51
2023-05-09T11:09:17.377Z,998.50
2023-05-09T11:10:17.482Z,998.47
2023-05-09T11:11:18.470Z,998.54
2023-05-09T11:12:17.281Z,998.49
2023-05-09T11:13:19.300Z,998.46
2023-05-09T11:14:44.293Z,998.43
2023-05-09T11:15:25.187Z,998.47
2023-05-09T11:16:23.225Z,998.41
2023-05-09T11:17:23.157Z,998.43
2023-05-09T11:18:22.087Z,998.49
2023-05-09T11:19:18.724Z,998.30
2023-05-09T11:20:25.239Z,998.38
2023-05-09T11:21:19.761Z,998.34
2023-05-09T11:22:25.127Z,998.36
2023-05-09T11:23:24.274Z,998.34
2023-05-09T11:24:20.774Z,998.38
2023-05-09T11:25:26.083Z,998.25
2023-05-09T11:26:21.439Z,998.31
2023-05-09T11:27:24.976Z,998.37
2023-05-09T11:28:24.405Z,998.33
2023-05-09T11:29:21.438Z,998.33
2023-05-09T11:30:25.631Z,998.22
2023-05-09T11:31:24.906Z,998.28
2023-05-09T11:32:29.755Z,998.26
2023-05-09T11:33:25.997Z,998.34
2023-05-09T11:34:27.500Z,998.18
2023-05-09T11:35:24.863Z,998.17
2023-05-09T11:36:23.861Z,998.14
2023-05-09T11:37:25.075Z,998.18
2023-05-09T11:38:24.018Z,998.17
2023-05-09T11:39:25.004Z,998.14
2023-05-09T11:40:24.390Z,998.11
2023-05-09T11:41:25.120Z,998.20
2023-05-09T11:42:26.717Z,998.14
2023-05-09T11:43:25.447Z,998.16
2023-05-09T11:44:26.560Z,998.10
2023-05-09T11:45:25.523Z,998.11
2023-05-09T11:46:27.430Z,998.08
2023-05-09T11:47:27.135Z,998.07
2023-05-09T11:48:24.378Z,998.02
2023-05-09T11:49:25.690Z,998.09
2023-05-09T11:50:23.922Z,997.93
2023-05-09T11:51:26.168Z,997.96
2023-05-09T11:52:26.433Z,998.00
2023-05-09T11:53:28.236Z,997.96
2023-05-09T11:54:27.283Z,997.92
2023-05-09T11:55:27.344Z,997.92
2023-05-09T11:56:27.629Z,997.90
2023-05-09T11:57:29.890Z,997.92
2023-05-09T11:58:28.407Z,997.89
2023-05-09T11:59:27.561Z,997.94
2023-05-09T12:00:28.582Z,997.80
2023-05-09T12:01:30.639Z,997.86
2023-05-09T12:02:31.209Z,997.82
2023-05-09T12:03:27.943Z,997.80
2023-05-09T12:04:30.446Z,997.84
2023-05-09T12:05:29.791Z,997.81
2023-05-09T12:06:30.244Z,997.83
2023-05-09T12:08:28.877Z,997.76
2023-05-09T12:09:29.579Z,997.68
2023-05-09T12:10:32.628Z,997.75
2023-05-09T12:11:30.395Z,997.75
2023-05-09T12:12:30.942Z,997.71
2023-05-09T12:13:54.437Z,997.74
2023-05-09T12:14:34.292Z,997.71
2023-05-09T12:15:31.643Z,997.66
2023-05-09T12:16:32.351Z,997.63
2023-05-09T12:17:32.092Z,997.70
2023-05-09T12:18:32.887Z,997.67
2023-05-09T12:19:31.005Z,997.68
2023-05-09T12:20:33.683Z,997.63
2023-05-09T12:21:31.822Z,997.69
2023-05-09T12:22:33.069Z,997.63
2023-05-09T12:23:32.985Z,997.58
2023-05-09T12:24:35.789Z,997.60
2023-05-09T12:25:35.772Z,997.58
2023-05-09T12:26:36.156Z,997.64
2023-05-09T12:27:36.086Z,997.56
2023-05-09T12:28:39.260Z,997.53
2023-05-09T12:29:33.392Z,997.51
2023-05-09T12:30:33.178Z,997.53